KFGN

Flag Island Airport

Flag Island, Minnesota, USA
METAR KFGN 180216Z AUTO 00000KT 10SM CLR 21/16 A3007 RMK AO2
Observed Flight Rules
Aug-18 @ 02:16 UTC (15 minutes ago) Visual Flight Rules
Visibility Clouds
10 miles
  • Clear skies
Temperatures Readings
Current 21°C / 70°F
Dewpoint 16°C / 61°F
Humidity 73%
Altimeter 30.07" Hg
Pressure 1018 hPa
Elevation 328
METAR KFGN 180216Z AUTO 00000KT 10SM CLR 21/16 A3007 RMK AO2
Observed Flight Rules
Aug-18 @ 02:16 UTC
(15 minutes ago)
VFR
Clouds
  • Clear skies
Temperature Dewpoint
21°C / 70°F 16°C / 61°F
Humidity Altimeter Pressure
73% 30.07" Hg 1018 hPa